Flight Track Log - Related Links

Times and Time Zones

All times are in EDT time to prevent confusion due to time zone crossing. See the FEX11 flight status page for this flight to view local times or setup timezone preferences in your user account.

Time Position Orientation Groundspeed Altitude Reporting Facility
EDT Latitude Longitude Course Direction KTS MPH feet Rate Location/Type
Sun 09:51:15 PM 49.9000 -97.0667 159° South 300 345 9,800  Level Winnipeg Center
Sun 09:52:15 PM 49.8167 -97.0167 159° South 350 403 11,200 2,000 Climbing Winnipeg Center
Sun 09:53:15 PM 49.7333 -96.9333 147° Southeast 350 403 13,800 2,350 Climbing Winnipeg Center
Sun 09:54:15 PM 49.6667 -96.8333 136° Southeast 340 391 15,900 1,800 Climbing Winnipeg Center
Sun 09:55:15 PM 49.6000 -96.7000 128° Southeast 360 414 17,400 1,450 Climbing Winnipeg Center
Sun 09:56:15 PM 49.5333 -96.5833 131° Southeast 380 437 18,800 1,750 Climbing Winnipeg Center
Sun 09:57:15 PM 49.4667 -96.4500 128° Southeast 380 437 20,900 1,950 Climbing Winnipeg Center
Sun 09:58:15 PM 49.4000 -96.3500 136° Southeast 380 437 22,700 1,750 Climbing Winnipeg Center
Sun 09:59:15 PM 49.3000 -96.2167 139° Southeast 380 437 24,400 1,341 Climbing Winnipeg Center
Sun 10:01:14 PM 49.1906 -95.9925 127° Southeast 400 460 26,700 1,233 Climbing Minneapolis Center
Sun 10:02:15 PM 49.1128 -95.8619 132° Southeast 411 473 28,100 1,426 Climbing Minneapolis Center
Sun 10:03:16 PM 49.0336 -95.7389 134° Southeast 409 471 29,600 1,220 Climbing Minneapolis Center
Sun 10:04:18 PM 48.9439 -95.6278 141° Southeast 414 476 30,600 829 Climbing Minneapolis Center
Sun 10:05:19 PM 48.8939 -95.5206 125° Southeast 419 482 31,300 885 Climbing Minneapolis Center
Sun 10:06:20 PM 48.8517 -95.3200 108° East 417 480 32,400 976 Climbing Minneapolis Center
Sun 10:07:22 PM 48.7839 -95.1336 119° Southeast 419 482 33,300 927 Climbing Minneapolis Center
Sun 10:08:23 PM 48.7258 -94.9753 119° Southeast 428 493 34,300 1,033 Climbing Minneapolis Center
Sun 10:09:24 PM 48.6742 -94.8172 116° Southeast 424 488 35,400 689 Climbing Minneapolis Center
Sun 10:10:25 PM 48.6189 -94.6644 119° Southeast 417 480 35,700 390 Climbing Minneapolis Center
Sun 10:11:27 PM 48.5622 -94.5075 119° Southeast 422 486 36,200 585 Climbing Minneapolis Center
Sun 10:12:28 PM 48.5058 -94.3514 119° Southeast 425 489 36,900 344 Climbing Minneapolis Center
Sun 10:13:29 PM 48.4500 -94.1953 118° Southeast 424 488 36,900 49 Level Minneapolis Center
Sun 10:14:30 PM 48.3914 -94.0353 119° Southeast 432 497 37,000 49 Climbing Minneapolis Center
Sun 10:15:32 PM 48.3319 -93.8714 119° Southeast 442 509 37,000  Level Minneapolis Center
Sun 10:16:33 PM 48.2697 -93.7053 119° Southeast 452 520 37,000 -49 Level Minneapolis Center
Sun 10:17:34 PM 48.1939 -93.5022 119° Southeast 461 531 36,900 -49 Descending Minneapolis Center
Sun 10:18:35 PM 48.1306 -93.3333 119° Southeast 465 535 36,900  Level Minneapolis Center
Sun 10:19:37 PM 48.0672 -93.1619 119° Southeast 468 539 36,900  Level Minneapolis Center
Sun 10:20:38 PM 48.0025 -92.9914 120° Southeast 470 541 36,900  Level Minneapolis Center
Sun 10:21:39 PM 47.9364 -92.8200 120° Southeast 471 542 36,900  Level Minneapolis Center
Sun 10:22:40 PM 47.8714 -92.6481 119° Southeast 473 544 36,900 44 Level Minneapolis Center
Sun 10:23:54 PM 47.8050 -92.4775 120° Southeast 474 545 37,000 311 Climbing Minneapolis Center
Sun 10:24:55 PM 47.7269 -92.2769 120° Southeast 469 540 37,600 787 Climbing Minneapolis Center
Sun 10:25:56 PM 47.6650 -92.1186 120° Southeast 449 517 38,600 585 Climbing Minneapolis Center
Sun 10:26:58 PM 47.6050 -91.9658 120° Southeast 433 498 38,800 178 Climbing Minneapolis Center
Sun 10:28:11 PM 47.5433 -91.8111 121° Southeast 435 501 39,000 89 Climbing Minneapolis Center
Sun 10:29:13 PM 47.4686 -91.6233 120° Southeast 440 506 39,000  Level Minneapolis Center
Sun 10:30:14 PM 47.3917 -91.4339 121° Southeast 448 516 39,000  Level Minneapolis Center
Sun 10:31:15 PM 47.3272 -91.2750 121° Southeast 450 518 39,000  Level Minneapolis Center
Sun 10:32:17 PM 47.2639 -91.1164 120° Southeast 450 518 39,000  Level Minneapolis Center
Sun 10:33:18 PM 47.1981 -90.9589 122° Southeast 451 519 39,000  Level Minneapolis Center
Sun 10:34:19 PM 47.1336 -90.8017 121° Southeast 450 518 39,000  Level Minneapolis Center
Sun 10:35:21 PM 47.0675 -90.6464 122° Southeast 450 518 39,000  Level Minneapolis Center
Sun 10:36:22 PM 47.0031 -90.4894 121° Southeast 450 518 39,000  Level Minneapolis Center
Sun 10:37:23 PM 46.9381 -90.3364 122° Southeast 450 518 39,000  Level Minneapolis Center
Sun 10:38:25 PM 46.8592 -90.1497 122° Southeast 449 517 39,000  Level Minneapolis Center
Sun 10:39:26 PM 46.7928 -89.9933 122° Southeast 451 519 39,000  Level Minneapolis Center
Sun 10:40:27 PM 46.7253 -89.8389 122° Southeast 450 518 39,000  Level Minneapolis Center
Sun 10:41:28 PM 46.6586 -89.6814 122° Southeast 455 524 39,000  Level Minneapolis Center
Sun 10:42:30 PM 46.5914 -89.5267 122° Southeast 453 521 39,000  Level Minneapolis Center
Sun 10:43:31 PM 46.5244 -89.3711 122° Southeast 452 520 39,000  Level Minneapolis Center
Sun 10:44:32 PM 46.4567 -89.2139 122° Southeast 455 524 39,000  Level Minneapolis Center
Sun 10:45:34 PM 46.3950 -89.0719 122° Southeast 454 522 39,000  Level Minneapolis Center
Sun 10:46:35 PM 46.3111 -88.8867 123° Southeast 457 526 39,000  Level Minneapolis Center
Sun 10:47:36 PM 46.2500 -88.7483 123° Southeast 451 519 39,000  Level Minneapolis Center
Sun 10:48:37 PM 46.1814 -88.5917 122° Southeast 458 527 39,000  Level Minneapolis Center
Sun 10:49:39 PM 46.1111 -88.4378 123° Southeast 459 528 39,000  Level Minneapolis Center
Sun 10:50:40 PM 46.0408 -88.2822 123° Southeast 461 531 39,000  Level Minneapolis Center
Sun 10:51:53 PM 45.9650 -88.1175 123° Southeast 462 532 39,000  Level Minneapolis Center
Sun 10:52:55 PM 45.8814 -87.9336 123° Southeast 460 529 39,000  Level Minneapolis Center
Sun 10:53:56 PM 45.8128 -87.7819 123° Southeast 454 522 39,000 -49 Level Minneapolis Center
Sun 10:54:57 PM 45.7436 -87.6342 124° Southeast 450 518 38,900  Descending Minneapolis Center
Sun 10:55:58 PM 45.6619 -87.4575 123° Southeast 444 511 39,000 49 Climbing Minneapolis Center
Sun 10:56:59 PM 45.5936 -87.3122 124° Southeast 442 509 39,000  Level Minneapolis Center
Sun 10:58:00 PM 45.5253 -87.1692 124° Southeast 438 504 39,000  Level Minneapolis Center
Sun 10:59:02 PM 45.4581 -87.0267 124° Southeast 435 501 39,000  Level Minneapolis Center
Sun 11:00:03 PM 45.3900 -86.8853 124° Southeast 435 501 39,000  Level Minneapolis Center
Sun 11:01:04 PM 45.3219 -86.7406 124° Southeast 438 504 39,000  Level Minneapolis Center
Sun 11:02:05 PM 45.2519 -86.5978 125° Southeast 441 507 39,000  Level Minneapolis Center
Sun 11:03:06 PM 45.1753 -86.4356 124° Southeast 449 517 39,000  Level Minneapolis Center
Sun 11:04:07 PM 45.1025 -86.2881 125° Southeast 455 524 39,000  Level Minneapolis Center
Sun 11:05:08 PM 45.0297 -86.1367 124° Southeast 456 525 39,000  Level Minneapolis Center
Sun 11:06:09 PM 44.9592 -85.9933 125° Southeast 454 522 39,000 49 Level Minneapolis Center
Sun 11:07:11 PM 44.8861 -85.8456 125° Southeast 457 526 39,100  Climbing Minneapolis Center
Sun 11:08:12 PM 44.8133 -85.6975 125° Southeast 459 528 39,000 -49 Descending Minneapolis Center
Sun 11:09:13 PM 44.7428 -85.5556 125° Southeast 458 527 39,000  Level Minneapolis Center
Sun 11:10:14 PM 44.6689 -85.4094 125° Southeast 459 528 39,000  Level Minneapolis Center
Sun 11:11:15 PM 44.5956 -85.2633 125° Southeast 457 526 39,000  Level Minneapolis Center
Sun 11:12:16 PM 44.5089 -85.0919 125° Southeast 453 521 39,000 -344 Level Minneapolis Center
Sun 11:13:17 PM 44.4358 -84.9472 125° Southeast 453 521 38,300 -1,082 Descending Minneapolis Center
Sun 11:14:18 PM 44.3614 -84.8000 125° Southeast 462 532 36,800 -1,180 Descending Minneapolis Center
Sun 11:15:19 PM 44.2883 -84.6589 126° Southeast 453 521 35,900 -885 Descending Minneapolis Center
Sun 11:16:20 PM 44.2150 -84.5164 126° Southeast 452 520 35,000 -443 Descending Minneapolis Center
Sun 11:17:21 PM 44.1394 -84.3725 126° Southeast 459 528 35,000  Level Minneapolis Center
Sun 11:18:23 PM 44.0644 -84.2261 125° Southeast 465 535 35,000 -341 Level Minneapolis Center
Sun 11:19:24 PM 43.9889 -84.0811 126° Southeast 466 536 34,300 -1,131 Descending Minneapolis Center
Sun 11:20:25 PM 43.9108 -83.9350 127° Southeast 455 524 32,700 -1,820 Descending Minneapolis Center
Sun 11:21:26 PM 43.8353 -83.7914 126° Southeast 459 528 30,600 -1,820 Descending Minneapolis Center
Sun 11:22:27 PM 43.7583 -83.6469 126° Southeast 463 533 29,000 -1,525 Descending Minneapolis Center
Sun 11:23:28 PM 43.6839 -83.5061 126° Southeast 458 527 27,500 -1,377 Descending Minneapolis Center
Sun 11:24:29 PM 43.6114 -83.3694 126° Southeast 447 514 26,200 -1,328 Descending Minneapolis Center
Sun 11:25:30 PM 43.5381 -83.2353 127° Southeast 441 507 24,800 -1,328 Descending Minneapolis Center
Sun 11:26:31 PM 43.4661 -83.1022 127° Southeast 436 502 23,500 -1,426 Descending Minneapolis Center
Sun 11:27:32 PM 43.3961 -82.9703 126° Southeast 430 495 21,900 -2,164 Descending Minneapolis Center
Sun 11:28:33 PM 43.3014 -82.7961 127° Southeast 467 537 19,100 -1,869 Descending Minneapolis Center
Sun 11:29:34 PM 43.2397 -82.6500 120° Southeast 451 519 18,100 -992 Descending Minneapolis Center
Sun 11:30:34 PM 43.2325 -82.5258 95° East 420 483 17,100 -1,574 Descending Minneapolis Center
Sun 11:31:36 PM 43.2169 -82.3228 96° East 416 479 14,900 -2,400 Descending Minneapolis Center
Sun 11:32:44 PM 43.1667 -82.1500 112° Southeast 420 483 11,900 -2,647 Descending Toronto Center

Login

Don't have an account? Register now (free) for customized features, flight alerts, and more!